Time;durP1;ratioP1;P1;durP2;ratioP2;P2;SDS_P1;SDS_P2;PMS_P1;PMS_P2;Temp;Humidity;BMP_temperature;BMP_pressure;BME280_temperature;BME280_humidity;BME280_pressure;Samples;Min_cycle;Max_cycle;Signal;HPM_P1;HPM_P2
2023/07/19 00:00:54;;;;;;;3.65;1.40;;;;;;;17.70;87.78;101427.16;5069725;28;20021;-37
2023/07/19 00:03:20;;;;;;;;;;;;;;;17.90;83.20;101440.97;5070131;28;20036;-37
2023/07/19 00:05:46;;;;;;;2.65;1.48;;;;;;;17.48;85.84;101416.34;5069877;28;19913;-37
2023/07/19 00:08:11;;;;;;;;;;;;;;;17.82;82.70;101433.28;5069719;28;20487;-37
2023/07/19 00:10:36;;;;;;;3.80;1.40;;;;;;;17.55;87.35;101414.22;5061735;28;19909;-37
2023/07/19 00:13:02;;;;;;;;;;;;;;;17.81;82.82;101422.59;5056725;28;20074;-37
2023/07/19 00:15:27;;;;;;;3.63;1.42;;;;;;;17.62;86.65;101411.25;5056231;28;20311;-37
2023/07/19 00:17:52;;;;;;;;;;;;;;;17.79;82.69;101411.09;5057121;28;20017;-37
2023/07/19 00:20:18;;;;;;;3.53;1.30;;;;;;;17.55;87.11;101416.94;5055899;28;20345;-37
2023/07/19 00:22:44;;;;;;;;;;;;;;;17.75;83.09;101414.34;5057161;28;20059;-37
2023/07/19 00:25:09;;;;;;;2.13;1.03;;;;;;;17.54;86.17;101398.88;5056424;28;19908;-37
2023/07/19 00:27:34;;;;;;;;;;;;;;;17.75;83.13;101408.88;5057045;28;20298;-37
2023/07/19 00:30:00;;;;;;;2.97;1.20;;;;;;;17.43;86.35;101397.19;5056012;28;19955;-37
2023/07/19 00:32:25;;;;;;;;;;;;;;;17.70;83.17;101403.34;5056677;28;20263;-37
2023/07/19 00:34:50;;;;;;;4.20;1.47;;;;;;;17.49;86.15;101396.13;5055933;28;19909;-37
2023/07/19 00:37:15;;;;;;;;;;;;;;;17.67;82.59;101401.16;5056596;28;20286;-36
2023/07/19 00:39:41;;;;;;;3.60;1.50;;;;;;;17.38;86.63;101392.50;5055514;28;19909;-36
2023/07/19 00:42:07;;;;;;;;;;;;;;;17.59;83.25;101390.72;5056544;28;20248;-45
2023/07/19 00:44:32;;;;;;;4.53;1.55;;;;;;;17.39;86.73;101385.94;5055788;28;19927;-36
2023/07/19 00:46:58;;;;;;;;;;;;;;;17.58;83.55;101383.59;5056728;28;20460;-37
2023/07/19 00:49:23;;;;;;;3.47;1.40;;;;;;;17.33;87.11;101373.34;5055986;28;20268;-37
2023/07/19 00:51:49;;;;;;;3.05;1.38;;;;;;;17.26;88.52;101370.00;5055717;28;20025;-37
2023/07/19 00:54:15;;;;;;;;;;;;;;;17.46;84.04;101375.59;5056790;28;20467;-37
2023/07/19 00:56:43;;;;;;;2.67;1.20;;;;;;;17.12;87.89;101374.25;5056059;28;19909;-37
2023/07/19 00:59:12;;;;;;;4.38;1.30;;;;;;;17.13;89.38;101370.44;5055783;28;20433;-37
2023/07/19 01:01:38;;;;;;;3.38;1.50;;;;;;;17.04;90.08;101351.00;5055797;28;20028;-37
2023/07/19 01:04:03;;;;;;;4.82;1.60;;;;;;;17.07;89.71;101357.84;5055131;28;20029;-36
2023/07/19 01:06:28;;;;;;;;;;;;;;;17.23;86.69;101365.91;5056037;28;20043;-37
2023/07/19 01:08:54;;;;;;;3.45;1.83;;;;;;;16.93;90.64;101366.50;5055507;28;19912;-37
2023/07/19 01:11:19;;;;;;;;;;;;;;;17.15;86.68;101368.28;5056283;28;20364;-37
2023/07/19 01:13:54;;;;;;;5.00;1.90;;;;;;;16.90;90.52;101368.91;5054833;28;19904;-37
2023/07/19 01:16:20;;;;;;;7.93;2.13;;;;;;;16.79;91.07;101369.88;5054791;28;20108;-37
2023/07/19 01:18:46;;;;;;;3.90;2.00;;;;;;;16.80;94.16;101363.38;5055266;28;20096;-37
2023/07/19 01:21:12;;;;;;;4.80;2.20;;;;;;;16.76;93.67;101359.50;5054939;28;20112;-38
2023/07/19 01:23:37;;;;;;;2.65;1.95;;;;;;;16.70;93.65;101351.22;5054947;28;20413;-36
2023/07/19 01:26:03;;;;;;;;;;;;;;;16.89;89.38;101348.16;5055451;28;20025;-36
2023/07/19 01:28:29;;;;;;;2.45;1.60;;;;;;;16.68;93.87;101341.63;5054853;28;19904;-37
2023/07/19 01:30:54;;;;;;;3.05;1.83;;;;;;;16.81;92.80;101354.91;5054896;28;20372;-36
2023/07/19 01:33:20;;;;;;;4.50;1.60;;;;;;;16.86;91.38;101356.84;5054506;28;20020;-36
2023/07/19 01:35:45;;;;;;;;;;;;;;;16.98;89.10;101354.75;5054875;28;20082;-36
2023/07/19 01:38:11;;;;;;;4.93;2.00;;;;;;;16.93;90.92;101350.09;5055421;28;19915;-36
2023/07/19 01:40:36;;;;;;;;;;;;;;;17.10;88.22;101346.38;5054734;28;20267;-36
2023/07/19 01:43:01;;;;;;;3.33;1.80;;;;;;;16.96;91.31;101332.34;5054871;28;19904;-36
2023/07/19 01:45:26;;;;;;;;;;;;;;;17.09;87.95;101345.56;5055046;28;20255;-36
2023/07/19 01:47:52;;;;;;;3.93;1.60;;;;;;;16.91;91.64;101351.44;5054864;28;19905;-36
2023/07/19 01:50:17;;;;;;;;;;;;;;;17.04;88.60;101350.19;5054605;28;20294;-36
2023/07/19 01:52:42;;;;;;;4.07;1.77;;;;;;;16.79;92.66;101353.50;5054701;28;20023;-36
2023/07/19 01:55:08;;;;;;;;;;;;;;;16.95;88.73;101345.19;5055066;28;20263;-36
2023/07/19 01:57:33;;;;;;;3.72;1.75;;;;;;;16.73;93.46;101355.38;5054596;28;20260;-36
2023/07/19 01:59:59;;;;;;;;;;;;;;;16.92;89.24;101353.88;5054600;28;20521;-36
2023/07/19 02:02:24;;;;;;;5.03;2.20;;;;;;;16.71;92.88;101346.59;5054777;28;19924;-36
2023/07/19 02:04:50;;;;;;;;;;;;;;;16.88;89.62;101346.47;5054395;28;20124;-36
2023/07/19 02:07:15;;;;;;;4.43;1.80;;;;;;;16.64;94.00;101352.28;5054675;28;20268;-36
2023/07/19 02:09:40;;;;;;;;;;;;;;;16.80;90.49;101344.25;5054562;28;20080;-37
2023/07/19 02:12:06;;;;;;;3.95;2.30;;;;;;;16.54;96.01;101334.94;5054352;28;20253;-37
2023/07/19 02:14:32;;;;;;;;;;;;;;;16.73;91.66;101345.25;5054703;28;20029;-37
2023/07/19 02:16:57;;;;;;;5.47;2.13;;;;;;;16.53;94.02;101342.31;5054610;28;19908;-37
2023/07/19 02:19:22;;;;;;;;;;;;;;;16.69;90.66;101329.66;5054283;28;20271;-37
2023/07/19 02:21:47;;;;;;;3.57;1.90;;;;;;;16.44;95.13;101325.56;5054225;28;19954;-38
2023/07/19 02:24:13;;;;;;;;;;;;;;;16.65;91.57;101331.25;5055141;28;20263;-37
2023/07/19 02:26:38;;;;;;;3.97;1.83;;;;;;;16.47;96.41;101335.19;5054427;28;19999;-36
2023/07/19 02:29:03;;;;;;;;;;;;;;;16.64;92.25;101330.44;5054227;28;20075;-36
2023/07/19 02:31:29;;;;;;;3.83;2.00;;;;;;;16.41;94.77;101314.38;5054099;28;19931;-36
2023/07/19 02:33:54;;;;;;;;;;;;;;;16.69;91.19;101327.75;5053975;28;20107;-36
2023/07/19 02:36:19;;;;;;;3.63;1.80;;;;;;;16.62;93.34;101332.59;5054243;28;19909;-36
2023/07/19 02:38:45;;;;;;;;;;;;;;;16.79;90.77;101332.50;5053993;28;20070;-36
2023/07/19 02:41:12;;;;;;;3.63;2.00;;;;;;;16.60;94.00;101325.75;5053601;28;19909;-37
2023/07/19 02:43:37;;;;;;;4.10;2.10;;;;;;;16.60;93.61;101332.03;5053592;28;20463;-36
2023/07/19 02:46:02;;;;;;;;;;;;;;;16.80;90.92;101328.69;5054006;28;20107;-36
2023/07/19 02:48:28;;;;;;;3.67;1.87;;;;;;;16.58;93.29;101327.91;5053585;28;19908;-36
2023/07/19 02:50:53;;;;;;;;;;;;;;;16.79;90.52;101337.13;5054784;28;20264;-36
2023/07/19 02:53:19;;;;;;;3.47;1.90;;;;;;;16.67;92.85;101345.47;5053770;28;19912;-36
2023/07/19 02:55:45;;;;;;;4.65;2.03;;;;;;;16.68;93.77;101337.00;5054329;28;20666;-36
2023/07/19 02:58:11;;;;;;;5.28;2.08;;;;;;;16.73;97.91;101339.81;5052113;28;20108;-36
2023/07/19 03:00:41;;;;;;;;;;;;;;;16.88;92.83;101341.84;5054482;28;20107;-36
2023/07/19 03:03:07;;;;;;;2.88;1.90;;;;;;;16.73;93.41;101338.97;5053639;28;19912;-36
2023/07/19 03:05:34;;;;;;;7.07;2.42;;;;;;;16.74;94.23;101335.19;5053480;28;20108;-36
2023/07/19 03:08:01;;;;;;;6.78;2.40;;;;;;;16.75;93.86;101330.56;5054196;28;20104;-36
2023/07/19 03:10:27;;;;;;;2.78;1.85;;;;;;;16.81;92.98;101332.22;5053348;28;20055;-36
2023/07/19 03:12:52;;;;;;;3.72;1.70;;;;;;;16.72;94.65;101332.69;5053889;28;20021;-37
2023/07/19 03:15:17;;;;;;;;;;;;;;;16.92;91.59;101332.03;5053961;28;20365;-36
2023/07/19 03:17:43;;;;;;;3.67;1.90;;;;;;;16.78;93.63;101340.94;5052993;28;19952;-36
2023/07/19 03:20:10;;;;;;;;;;;;;;;16.94;91.41;101340.00;5053299;28;20279;-36
2023/07/19 03:22:35;;;;;;;3.60;1.90;;;;;;;16.83;93.24;101328.13;5053251;28;19963;-36
2023/07/19 03:25:00;;;;;;;;;;;;;;;16.97;91.05;101337.53;5053339;28;20041;-36
2023/07/19 03:27:26;;;;;;;5.05;2.00;;;;;;;16.75;93.58;101316.91;5053747;28;19913;-36
2023/07/19 03:29:51;;;;;;;;;;;;;;;16.98;91.10;101338.34;5053608;28;20044;-36
2023/07/19 03:32:16;;;;;;;3.80;1.87;;;;;;;16.70;93.43;101323.94;5053420;28;19913;-36
2023/07/19 03:34:41;;;;;;;;;;;;;;;16.94;91.02;101337.25;5053535;28;20584;-36
2023/07/19 03:37:07;;;;;;;4.47;2.47;;;;;;;16.70;93.40;101340.31;5053135;28;19908;-36
2023/07/19 03:39:32;;;;;;;;;;;;;;;16.93;90.70;101351.97;5053402;28;20293;-36
2023/07/19 03:41:57;;;;;;;3.50;1.70;;;;;;;16.85;93.29;101347.84;5053052;28;19923;-36
2023/07/19 03:44:23;;;;;;;;;;;;;;;16.95;90.53;101341.63;5053697;28;20274;-36
2023/07/19 03:46:48;;;;;;;5.00;2.53;;;;;;;16.84;94.96;101346.19;5056591;28;19961;-36
2023/07/19 03:49:13;;;;;;;;;;;;;;;16.98;91.58;101352.88;5057196;28;20275;-43
2023/07/19 03:51:39;;;;;;;4.00;2.30;;;;;;;16.68;94.08;101339.72;5056743;28;19909;-36
2023/07/19 03:54:04;;;;;;;;;;;;;;;16.95;91.27;101350.66;5056783;28;20272;-36
2023/07/19 03:56:29;;;;;;;3.47;2.10;;;;;;;16.78;96.51;101344.50;5057222;28;19948;-36
2023/07/19 03:58:54;;;;;;;;;;;;;;;16.91;92.42;101340.50;5056946;28;20303;-36
2023/07/19 04:01:20;;;;;;;4.97;2.40;;;;;;;16.76;95.03;101346.66;5057132;28;19955;-36
2023/07/19 04:03:45;;;;;;;;;;;;;;;16.88;91.96;101343.75;5057216;28;20107;-35
2023/07/19 04:06:10;;;;;;;4.68;2.47;;;;;;;16.69;96.49;101337.84;5056196;28;20345;-36
2023/07/19 04:08:36;;;;;;;;;;;;;;;16.85;92.62;101347.84;5057411;28;20031;-36
2023/07/19 04:11:01;;;;;;;3.97;2.60;;;;;;;16.61;96.27;101341.03;5056694;28;19909;-36
2023/07/19 04:13:27;;;;;;;;;;;;;;;16.79;93.14;101342.56;5056751;28;20711;-36
2023/07/19 04:15:52;;;;;;;4.78;2.65;;;;;;;16.56;98.05;101330.06;5056834;28;20321;-36
2023/07/19 04:18:18;;;;;;;;;;;;;;;16.69;95.52;101344.13;5056613;28;20377;-36
2023/07/19 04:20:43;;;;;;;5.67;2.67;;;;;;;16.42;98.42;101326.94;5056780;28;20253;-36
2023/07/19 04:23:08;;;;;;;;;;;;;;;16.63;94.65;101344.31;5056545;28;20320;-36
2023/07/19 04:25:34;;;;;;;5.55;2.80;;;;;;;16.46;98.55;101337.09;5055926;28;19923;-36
2023/07/19 04:27:59;;;;;;;;;;;;;;;16.64;95.31;101332.31;5056539;28;20029;-36
2023/07/19 04:30:25;;;;;;;6.93;2.60;;;;;;;16.48;98.62;101334.91;5056075;28;19913;-36
2023/07/19 04:32:55;;;;;;;;;;;;;;;16.65;95.72;101337.53;5056689;28;20264;-36
2023/07/19 04:35:22;;;;;;;6.10;2.55;;;;;;;16.59;98.26;101333.13;5055670;28;20299;-36
2023/07/19 04:37:48;;;;;;;5.18;2.75;;;;;;;16.57;99.85;101328.97;5056158;28;20029;-36
2023/07/19 04:40:13;;;;;;;;;;;;;;;16.75;95.94;101344.19;5056259;28;20407;-36
2023/07/19 04:42:38;;;;;;;4.47;2.38;;;;;;;16.73;96.38;101345.25;5056618;28;19908;-36
2023/07/19 04:45:04;;;;;;;;;;;;;;;16.80;94.93;101347.78;5056430;28;20031;-36
2023/07/19 04:47:29;;;;;;;5.13;2.15;;;;;;;16.63;98.42;101338.88;5056533;28;19909;-37
2023/07/19 04:49:54;;;;;;;;;;;;;;;16.83;95.52;101350.00;5056132;28;20035;-36
2023/07/19 04:52:20;;;;;;;4.40;2.10;;;;;;;16.76;97.60;101346.66;5055720;28;20324;-37
2023/07/19 04:54:47;;;;;;;;;;;;;;;16.83;95.41;101347.25;5056819;28;20337;-36
2023/07/19 04:57:13;;;;;;;6.80;2.35;;;;;;;16.73;96.40;101338.97;5055450;28;19912;-36
2023/07/19 04:59:38;;;;;;;;;;;;;;;16.89;94.42;101353.63;5055442;28;20041;-37
2023/07/19 05:02:04;;;;;;;6.75;2.25;;;;;;;16.85;95.94;101361.50;5055044;28;19913;-37
2023/07/19 05:04:29;;;;;;;;;;;;;;;16.96;94.33;101360.50;5056082;28;20028;-37
2023/07/19 05:06:55;;;;;;;5.27;2.20;;;;;;;16.88;97.40;101360.13;5055985;28;19931;-36
2023/07/19 05:09:20;;;;;;;;;;;;;;;17.05;94.17;101355.38;5055740;28;20346;-37
2023/07/19 05:11:46;;;;;;;5.57;2.70;;;;;;;16.97;94.52;101356.66;5055142;28;19947;-36
2023/07/19 05:14:11;;;;;;;;;;;;;;;17.16;93.58;101362.53;5055328;28;20100;-37
2023/07/19 05:16:37;;;;;;;6.50;2.72;;;;;;;17.12;94.07;101352.41;5055444;28;19908;-37
2023/07/19 05:19:02;;;;;;;;;;;;;;;17.24;92.58;101356.59;5055801;28;20029;-37
2023/07/19 05:21:28;;;;;;;5.35;2.72;;;;;;;17.19;93.38;101345.63;5055634;28;19916;-37
2023/07/19 05:23:53;;;;;;;;;;;;;;;17.34;92.34;101360.50;5055405;28;20077;-37
2023/07/19 05:26:19;;;;;;;4.45;2.22;;;;;;;17.34;92.91;101355.03;5055021;28;20019;-36
2023/07/19 05:28:45;;;;;;;;;;;;;;;17.48;91.98;101356.22;5055881;28;20055;-37
2023/07/19 05:31:11;;;;;;;4.97;2.83;;;;;;;17.29;93.00;101342.16;5055711;28;20280;-37
2023/07/19 05:33:36;;;;;;;5.47;2.72;;;;;;;17.47;91.34;101355.38;5054521;28;20100;-36
2023/07/19 05:36:01;;;;;;;;;;;;;;;17.58;90.89;101355.44;5055547;28;20032;-36
2023/07/19 05:38:28;;;;;;;7.80;2.97;;;;;;;17.55;91.47;101355.97;5054344;28;19931;-36
2023/07/19 05:40:59;;;;;;;5.75;3.20;;;;;;;17.56;91.43;101358.44;5054999;28;20350;-36
2023/07/19 05:43:24;;;;;;;4.65;2.70;;;;;;;17.58;91.43;101352.72;5055498;28;20021;-36
2023/07/19 05:45:50;;;;;;;4.28;2.70;;;;;;;17.68;90.72;101344.56;5054578;28;20124;-36
2023/07/19 05:48:15;;;;;;;;;;;;;;;17.82;90.13;101350.41;5054954;28;20052;-36
2023/07/19 05:50:41;;;;;;;4.77;2.90;;;;;;;17.81;89.72;101351.47;5054271;28;19905;-36
2023/07/19 05:53:06;;;;;;;;;;;;;;;17.93;89.45;101346.59;5054885;28;20256;-37
2023/07/19 05:55:32;;;;;;;4.60;2.63;;;;;;;17.91;89.55;101346.03;5054457;28;20268;-37
2023/07/19 05:57:57;;;;;;;;;;;;;;;18.04;89.02;101355.66;5054529;28;20107;-37
2023/07/19 06:00:28;;;;;;;4.77;2.83;;;;;;;17.99;89.64;101354.56;5054885;28;19913;-36
2023/07/19 06:02:56;;;;;;;9.48;3.10;;;;;;;17.99;89.90;101357.28;5054275;28;20268;-36
2023/07/19 06:05:25;;;;;;;4.18;3.10;;;;;;;18.04;90.34;101359.22;5053924;28;20046;-36
2023/07/19 06:07:51;;;;;;;7.22;3.30;;;;;;;18.06;89.78;101346.13;5054530;28;20464;-36
2023/07/19 06:10:18;;;;;;;7.05;3.67;;;;;;;18.07;89.82;101358.69;5054381;28;20028;-36
2023/07/19 06:12:44;;;;;;;6.65;3.13;;;;;;;18.20;89.92;101357.34;5054140;28;20029;-36
2023/07/19 06:15:10;;;;;;;7.30;3.60;;;;;;;18.18;90.21;101351.34;5054159;28;20027;-36
2023/07/19 06:17:36;;;;;;;6.22;3.40;;;;;;;18.26;88.94;101346.16;5054355;28;20024;-36
2023/07/19 06:20:03;;;;;;;5.43;3.47;;;;;;;18.30;88.10;101351.09;5053928;28;20027;-36
2023/07/19 06:22:29;;;;;;;5.55;3.55;;;;;;;18.28;88.83;101348.63;5054298;28;20025;-37
2023/07/19 06:24:54;;;;;;;5.28;3.05;;;;;;;18.23;88.12;101333.00;5054420;28;20111;-37
2023/07/19 06:27:20;;;;;;;5.43;3.08;;;;;;;18.43;88.61;101345.91;5053949;28;20025;-37
2023/07/19 06:29:46;;;;;;;8.02;4.10;;;;;;;18.27;88.23;101328.63;5054295;28;20028;-37
2023/07/19 06:32:11;;;;;;;5.43;3.15;;;;;;;18.46;89.10;101339.91;5054460;28;20472;-37
2023/07/19 06:34:36;;;;;;;5.70;3.17;;;;;;;18.50;87.94;101334.72;5053522;28;20107;-37
2023/07/19 06:37:02;;;;;;;;;;;;;;;18.75;86.88;101342.97;5053957;28;20100;-37
2023/07/19 06:39:28;;;;;;;6.78;3.10;;;;;;;18.75;86.15;101326.53;5053703;28;19915;-37
2023/07/19 06:41:54;;;;;;;6.80;3.95;;;;;;;18.98;86.08;101338.03;5054013;28;20377;-37
2023/07/19 06:44:19;;;;;;;6.22;3.50;;;;;;;18.98;84.80;101341.63;5053725;28;20020;-37
2023/07/19 06:46:44;;;;;;;;;;;;;;;19.19;85.48;101347.88;5054756;28;20359;-37
2023/07/19 06:49:10;;;;;;;7.25;3.38;;;;;;;19.27;83.54;101344.56;5054113;28;19998;-37
2023/07/19 06:51:35;;;;;;;;;;;;;;;19.53;84.16;101341.78;5054408;28;20039;-37
2023/07/19 06:54:00;;;;;;;4.78;3.33;;;;;;;19.62;81.51;101345.63;5053863;28;19905;-37
2023/07/19 06:56:26;;;;;;;7.65;3.35;;;;;;;19.69;82.15;101343.41;5053523;28;20025;-37
2023/07/19 06:58:51;;;;;;;6.32;3.63;;;;;;;19.66;81.84;101341.19;5053778;28;20127;-37
2023/07/19 07:01:16;;;;;;;4.07;2.90;;;;;;;19.63;81.96;101340.97;5053597;28;20062;-37
2023/07/19 07:03:42;;;;;;;7.95;3.50;;;;;;;19.73;83.50;101340.91;5053818;28;20025;-38
2023/07/19 07:06:07;;;;;;;5.97;3.03;;;;;;;19.78;80.90;101328.00;5053204;28;20485;-37
2023/07/19 07:08:33;;;;;;;4.47;2.50;;;;;;;19.95;81.55;101329.56;5053431;28;20029;-37
2023/07/19 07:11:00;;;;;;;9.05;3.60;;;;;;;19.97;80.30;101330.13;5053146;28;20108;-37
2023/07/19 07:13:25;;;;;;;6.38;3.10;;;;;;;20.02;79.55;101339.13;5053080;28;20025;-37
2023/07/19 07:15:51;;;;;;;6.65;2.90;;;;;;;20.01;79.17;101347.66;5053963;28;20078;-37
2023/07/19 07:18:17;;;;;;;6.47;2.92;;;;;;;20.00;78.91;101352.31;5053258;28;20035;-36
2023/07/19 07:20:42;;;;;;;7.88;2.65;;;;;;;19.95;79.15;101351.53;5054679;28;20033;-36
2023/07/19 07:23:07;;;;;;;5.25;2.70;;;;;;;19.95;80.14;101341.34;5057279;28;20461;-35
2023/07/19 07:25:33;;;;;;;5.32;2.78;;;;;;;19.92;79.99;101341.94;5057048;28;20063;-37
2023/07/19 07:27:59;;;;;;;9.68;2.78;;;;;;;19.89;80.24;101338.94;5057501;28;20021;-35
2023/07/19 07:30:25;;;;;;;7.10;3.20;;;;;;;19.91;81.34;101332.06;5056965;28;20027;-35
2023/07/19 07:32:50;;;;;;;4.80;3.00;;;;;;;19.96;81.02;101345.78;5057743;28;20056;-36
2023/07/19 07:35:16;;;;;;;5.53;2.33;;;;;;;20.00;80.52;101348.75;5057598;28;20396;-36
2023/07/19 07:37:41;;;;;;;6.00;2.88;;;;;;;19.99;80.12;101347.13;5056862;28;20025;-36
2023/07/19 07:40:08;;;;;;;7.57;2.50;;;;;;;19.93;79.93;101335.34;5056587;28;20086;-36
2023/07/19 07:42:34;;;;;;;5.07;2.53;;;;;;;20.03;79.40;101342.72;5057006;28;20108;-36
2023/07/19 07:44:59;;;;;;;8.38;2.65;;;;;;;19.95;78.41;101340.53;5056699;28;20067;-36
2023/07/19 07:47:25;;;;;;;4.53;2.35;;;;;;;19.93;78.78;101340.84;5057221;28;20404;-36
2023/07/19 07:49:51;;;;;;;8.02;2.70;;;;;;;19.93;79.90;101329.03;5057091;28;20051;-36
2023/07/19 07:52:17;;;;;;;4.15;2.17;;;;;;;19.95;79.60;101333.13;5057649;28;20052;-36
2023/07/19 07:54:42;;;;;;;6.53;2.53;;;;;;;20.00;79.01;101340.50;5056691;28;20021;-36
2023/07/19 07:57:08;;;;;;;6.35;2.47;;;;;;;20.01;79.16;101326.53;5057258;28;20048;-36
2023/07/19 07:59:33;;;;;;;4.53;2.13;;;;;;;20.10;79.11;101336.91;5056821;28;20044;-36
2023/07/19 08:01:59;;;;;;;7.50;2.50;;;;;;;20.02;79.32;101333.66;5057180;28;20029;-36
2023/07/19 08:04:25;;;;;;;6.75;2.30;;;;;;;20.07;79.53;101338.28;5056538;28;20338;-36
2023/07/19 08:06:50;;;;;;;5.55;2.40;;;;;;;19.99;78.88;101316.91;5056566;28;20032;-36
2023/07/19 08:09:16;;;;;;;4.40;2.05;;;;;;;20.26;78.92;101332.97;5056237;28;20025;-36
2023/07/19 08:11:41;;;;;;;8.38;2.22;;;;;;;20.35;75.90;101330.44;5056539;28;20059;-36
2023/07/19 08:14:06;;;;;;;6.40;2.20;;;;;;;20.50;76.48;101333.13;5056160;28;20029;-36
2023/07/19 08:16:32;;;;;;;4.70;2.15;;;;;;;20.61;75.75;101334.69;5056939;28;20403;-36
2023/07/19 08:18:57;;;;;;;4.35;2.25;;;;;;;20.76;77.14;101329.06;5055984;28;20027;-36
2023/07/19 08:21:24;;;;;;;5.70;1.92;;;;;;;20.94;74.49;101322.03;5056122;28;20017;-37
2023/07/19 08:23:53;;;;;;;5.10;1.88;;;;;;;20.91;74.60;101306.13;5056710;28;20031;-37
2023/07/19 08:26:19;;;;;;;4.95;2.10;;;;;;;20.95;73.48;101312.69;5056457;28;20021;-37
2023/07/19 08:28:44;;;;;;;4.82;1.80;;;;;;;20.89;73.72;101305.59;5056155;28;20480;-37
2023/07/19 08:31:10;;;;;;;7.30;2.40;;;;;;;20.95;73.40;101323.69;5055352;28;20025;-37
2023/07/19 08:33:36;;;;;;;7.00;1.95;;;;;;;20.98;72.21;101325.00;5056009;28;20029;-37
2023/07/19 08:36:01;;;;;;;4.93;1.95;;;;;;;21.01;72.61;101317.03;5056581;28;20021;-36
2023/07/19 08:38:27;;;;;;;4.28;2.00;;;;;;;21.01;70.73;101318.94;5056158;28;20057;-36
2023/07/19 08:41:03;;;;;;;3.83;1.90;;;;;;;21.04;71.21;101315.63;5055969;28;20381;-37
2023/07/19 08:43:29;;;;;;;;;;;;;;;21.19;71.93;101318.22;5056065;28;20140;-36
2023/07/19 08:45:55;;;;;;;7.75;2.55;;;;;;;20.93;71.95;101311.31;5056428;28;19963;-36
2023/07/19 08:48:21;;;;;;;5.07;2.53;;;;;;;20.87;73.09;101317.97;5056281;28;20067;-36
2023/07/19 08:50:58;;;;;;;6.07;2.47;;;;;;;20.90;73.11;101311.91;5056033;28;20025;-36
2023/07/19 08:53:25;;;;;;;5.88;2.88;;;;;;;21.08;75.31;101306.53;5055973;28;20021;-36
2023/07/19 08:55:51;;;;;;;7.10;2.40;;;;;;;21.22;74.07;101306.63;5056415;28;20044;-37
2023/07/19 08:58:17;;;;;;;6.82;2.63;;;;;;;21.18;73.06;101313.84;5055457;28;20017;-36
2023/07/19 09:00:45;;;;;;;5.03;2.42;;;;;;;21.30;73.52;101317.03;5056664;28;20536;-36
2023/07/19 09:03:11;;;;;;;7.05;2.50;;;;;;;21.33;73.21;101318.41;5055533;28;20036;-37
2023/07/19 09:05:38;;;;;;;4.68;2.30;;;;;;;21.40;72.92;101318.03;5056300;28;20021;-36
2023/07/19 09:08:03;;;;;;;5.82;2.50;;;;;;;21.37;73.44;101322.19;5055535;28;20025;-36
2023/07/19 09:10:29;;;;;;;5.45;2.33;;;;;;;21.41;72.78;101314.97;5055683;28;20021;-37
2023/07/19 09:12:55;;;;;;;4.60;2.17;;;;;;;21.43;73.93;101318.28;5055579;28;20350;-37
2023/07/19 09:15:21;;;;;;;7.13;2.40;;;;;;;21.48;73.21;101317.41;5055315;28;20063;-37
2023/07/19 09:17:48;;;;;;;4.50;1.92;;;;;;;21.59;75.58;101321.66;5055218;28;20369;-37
2023/07/19 09:20:15;;;;;;;4.05;2.03;;;;;;;21.56;72.68;101312.06;5055085;28;20078;-36
2023/07/19 09:22:41;;;;;;;4.72;2.20;;;;;;;21.58;72.47;101314.53;5054882;28;20457;-36
2023/07/19 09:25:09;;;;;;;7.93;2.33;;;;;;;21.60;71.53;101312.28;5054783;28;20021;-36
2023/07/19 09:27:35;;;;;;;5.88;1.92;;;;;;;21.58;72.34;101311.78;5055335;28;20045;-37
2023/07/19 09:30:03;;;;;;;5.88;1.85;;;;;;;21.59;71.97;101327.16;5055817;28;20075;-36
2023/07/19 09:32:29;;;;;;;6.30;2.15;;;;;;;21.53;73.26;101318.16;5054934;28;20033;-36
2023/07/19 09:34:56;;;;;;;4.80;2.00;;;;;;;21.55;73.01;101334.38;5054192;28;20052;-36
2023/07/19 09:37:22;;;;;;;10.15;2.10;;;;;;;21.45;72.89;101326.22;5054931;28;20055;-37
2023/07/19 09:39:48;;;;;;;5.00;1.90;;;;;;;21.36;72.97;101317.78;5054387;28;20021;-36
2023/07/19 09:42:14;;;;;;;3.78;1.90;;;;;;;21.25;74.23;101321.75;5054185;28;20083;-36
2023/07/19 09:44:40;;;;;;;3.40;1.70;;;;;;;21.22;75.01;101336.06;5054210;28;20420;-37
2023/07/19 09:47:09;;;;;;;4.03;1.80;;;;;;;21.12;74.58;101328.72;5054982;28;20041;-37
2023/07/19 09:49:38;;;;;;;7.10;1.73;;;;;;;21.23;74.33;101322.03;5054595;28;20027;-37
2023/07/19 09:52:04;;;;;;;4.82;1.60;;;;;;;21.40;74.82;101318.03;5055155;28;20090;-37
2023/07/19 09:54:32;;;;;;;3.90;1.90;;;;;;;21.67;73.80;101318.28;5054247;28;20491;-37
2023/07/19 09:56:58;;;;;;;5.07;1.70;;;;;;;21.91;71.61;101309.16;5055038;28;20017;-37
2023/07/19 09:59:32;;;;;;;3.78;1.75;;;;;;;21.85;70.53;101302.88;5054234;28;20049;-37
2023/07/19 10:01:58;;;;;;;5.70;2.20;;;;;;;22.05;70.13;101302.59;5054432;28;20021;-37
2023/07/19 10:04:28;;;;;;;6.18;1.80;;;;;;;22.22;68.74;101312.34;5055159;28;20103;-37
2023/07/19 10:07:19;;;;;;;6.03;1.65;;;;;;;22.41;68.63;101312.34;5054115;28;20021;-37
2023/07/19 10:09:51;;;;;;;6.10;1.88;;;;;;;22.29;65.80;101316.34;5054300;28;20024;-37
2023/07/19 10:12:16;;;;;;;4.18;1.50;;;;;;;22.32;67.05;101317.69;5054266;28;20117;-37
2023/07/19 10:15:05;;;;;;;2.95;1.20;;;;;;;22.54;65.89;101312.38;5054742;28;20060;-37
2023/07/19 10:17:42;;;;;;;2.35;1.25;;;;;;;22.50;63.73;101310.53;5054126;28;20017;-37
2023/07/19 10:20:14;;;;;;;3.38;1.20;;;;;;;22.40;62.50;101313.44;5053811;28;20099;-37
2023/07/19 10:22:52;;;;;;;2.83;1.40;;;;;;;22.27;61.79;101324.09;5054329;28;20091;-37
2023/07/19 10:25:47;;;;;;;3.00;1.30;;;;;;;22.25;62.37;101318.09;5054470;28;20453;-37
2023/07/19 10:28:14;;;;;;;5.22;1.33;;;;;;;22.13;60.37;101311.38;5054794;28;20039;-37
2023/07/19 10:30:50;;;;;;;3.58;1.30;;;;;;;22.32;61.53;101317.69;5053905;28;20025;-37
2023/07/19 10:33:25;;;;;;;3.20;1.38;;;;;;;22.42;61.03;101317.53;5054160;28;20028;-37
2023/07/19 10:36:18;;;;;;;4.32;1.50;;;;;;;22.78;60.63;101309.50;5054145;28;20512;-38
2023/07/19 10:38:44;;;;;;;2.55;1.10;;;;;;;22.94;59.00;101314.81;5052255;28;20531;-38
2023/07/19 10:41:11;;;;;;;7.38;1.83;;;;;;;22.90;58.63;101311.81;5053803;28;20025;-37
2023/07/19 10:43:37;;;;;;;3.47;1.20;;;;;;;22.88;58.20;101303.84;5054007;28;20023;-38
2023/07/19 10:46:04;;;;;;;4.15;1.63;;;;;;;22.85;57.85;101314.63;5054270;28;20033;-38
2023/07/19 10:48:32;;;;;;;3.10;1.20;;;;;;;22.74;58.85;101310.41;5052419;28;20056;-38
2023/07/19 10:50:58;;;;;;;4.13;1.60;;;;;;;22.67;59.21;101308.03;5053935;28;20029;-37
2023/07/19 10:53:25;;;;;;;3.72;1.30;;;;;;;22.66;59.82;101314.69;5053523;28;20361;-38
2023/07/19 10:55:54;;;;;;;3.85;1.30;;;;;;;22.50;59.69;101310.53;5053690;28;20449;-38
2023/07/19 10:58:20;;;;;;;7.47;1.70;;;;;;;22.57;59.19;101319.22;5053470;28;20029;-37
2023/07/19 11:00:45;;;;;;;3.83;1.30;;;;;;;22.58;58.83;101318.09;5054097;28;20045;-37
2023/07/19 11:03:15;;;;;;;2.95;1.20;;;;;;;22.56;58.76;101312.09;5053472;28;20454;-38
2023/07/19 11:05:47;;;;;;;3.28;1.17;;;;;;;22.47;60.14;101314.69;5053729;28;20062;-37
2023/07/19 11:08:39;;;;;;;3.03;1.35;;;;;;;22.47;60.80;101314.69;5054002;28;20021;-37
2023/07/19 11:11:07;;;;;;;5.10;1.23;;;;;;;22.33;61.62;101317.38;5051994;28;20091;-37
2023/07/19 11:13:32;;;;;;;6.15;1.65;;;;;;;22.25;61.30;101318.09;5053707;28;20031;-37
2023/07/19 11:15:58;;;;;;;4.68;1.50;;;;;;;22.18;63.24;101325.06;5054006;28;20021;-37
2023/07/19 11:18:28;;;;;;;5.10;1.52;;;;;;;22.04;66.45;101305.66;5053268;28;20031;-37
2023/07/19 11:20:57;;;;;;;3.95;1.45;;;;;;;21.92;69.02;101311.63;5053655;28;20021;-37
2023/07/19 11:23:24;;;;;;;4.28;1.50;;;;;;;21.92;68.27;101311.63;5053243;28;20036;-37
2023/07/19 11:25:50;;;;;;;3.72;1.25;;;;;;;22.16;69.64;101317.09;5053601;28;20079;-37
2023/07/19 11:28:51;;;;;;;3.22;1.15;;;;;;;22.42;68.43;101319.47;5053573;28;20445;-38
2023/07/19 11:31:31;;;;;;;2.78;1.13;;;;;;;22.68;66.47;101303.34;5053198;28;20051;-38
2023/07/19 11:34:08;;;;;;;4.05;1.20;;;;;;;23.01;67.56;101302.25;5053178;28;20032;-38
2023/07/19 11:36:38;;;;;;;3.40;1.30;;;;;;;23.41;61.94;101299.00;5053514;28;20025;-37
2023/07/19 11:39:04;;;;;;;3.15;1.10;;;;;;;23.93;61.33;101283.03;5052846;28;20099;-38